createdAt,value
2022-10-17T00:00:37.180Z,5.20
2022-10-17T00:03:05.082Z,5.70
2022-10-17T00:05:32.847Z,5.47
2022-10-17T00:08:00.688Z,6.95
2022-10-17T00:10:28.432Z,6.35
2022-10-17T00:12:57.559Z,6.70
2022-10-17T00:15:25.436Z,6.38
2022-10-17T00:17:53.191Z,5.95
2022-10-17T00:20:21.232Z,5.75
2022-10-17T00:22:48.932Z,5.30
2022-10-17T00:25:16.695Z,5.38
2022-10-17T00:27:44.683Z,4.78
2022-10-17T00:30:16.486Z,4.30
2022-10-17T00:32:44.495Z,4.03
2022-10-17T00:35:12.531Z,4.25
2022-10-17T00:37:40.370Z,3.72
2022-10-17T00:40:09.468Z,4.20
2022-10-17T00:42:37.362Z,3.85
2022-10-17T00:45:13.734Z,3.97
2022-10-17T00:47:49.906Z,3.75
2022-10-17T00:50:19.400Z,3.88
2022-10-17T00:52:49.603Z,3.80
2022-10-17T00:55:21.004Z,3.80
2022-10-17T00:57:49.503Z,3.30
2022-10-17T01:00:18.867Z,3.10
2022-10-17T01:02:48.419Z,2.83
2022-10-17T01:05:19.251Z,3.40
2022-10-17T01:07:49.090Z,3.40
2022-10-17T01:10:17.726Z,3.08
2022-10-17T01:13:04.149Z,3.58
2022-10-17T01:15:45.044Z,3.90
2022-10-17T01:18:24.261Z,3.22
2022-10-17T01:21:10.441Z,3.65
2022-10-17T01:24:04.084Z,3.53
2022-10-17T01:26:45.312Z,3.15
2022-10-17T01:29:33.510Z,3.05
2022-10-17T01:32:08.005Z,3.00
2022-10-17T01:37:17.662Z,2.90
2022-10-17T01:39:49.789Z,2.80
2022-10-17T01:42:24.643Z,2.67
2022-10-17T01:44:57.782Z,3.15
2022-10-17T01:47:31.015Z,3.28
2022-10-17T01:50:07.793Z,3.03
2022-10-17T01:52:41.042Z,2.92
2022-10-17T01:55:12.213Z,3.07
2022-10-17T01:57:44.319Z,2.80
2022-10-17T02:00:16.608Z,2.83
2022-10-17T02:02:49.224Z,2.83
2022-10-17T02:05:19.837Z,3.50
2022-10-17T02:07:47.802Z,2.90
2022-10-17T02:10:22.769Z,3.38
2022-10-17T02:12:58.004Z,2.88
2022-10-17T02:15:53.036Z,3.08
2022-10-17T02:18:39.042Z,3.15
2022-10-17T02:21:12.479Z,2.78
2022-10-17T02:23:49.155Z,2.38
2022-10-17T02:26:23.002Z,2.42
2022-10-17T02:29:00.024Z,2.70
2022-10-17T02:31:32.125Z,2.90
2022-10-17T02:34:05.859Z,3.45
2022-10-17T02:36:39.403Z,2.88
2022-10-17T02:39:09.307Z,2.97
2022-10-17T02:41:39.808Z,3.25
2022-10-17T02:44:09.491Z,3.50
2022-10-17T02:46:39.490Z,3.15
2022-10-17T02:49:16.612Z,4.07
2022-10-17T02:51:48.173Z,3.03
2022-10-17T02:54:21.350Z,2.65
2022-10-17T02:56:52.131Z,2.97
2022-10-17T02:59:22.405Z,3.33
2022-10-17T03:01:51.566Z,3.10
2022-10-17T03:04:20.964Z,3.30
2022-10-17T03:06:49.580Z,3.00
2022-10-17T03:09:17.648Z,3.00
2022-10-17T03:11:45.374Z,3.95
2022-10-17T03:14:13.232Z,3.15
2022-10-17T03:16:41.766Z,3.08
2022-10-17T03:19:09.525Z,3.03
2022-10-17T03:21:39.043Z,3.20
2022-10-17T03:24:08.494Z,3.30
2022-10-17T03:26:36.407Z,3.30
2022-10-17T03:29:04.887Z,3.50
2022-10-17T03:31:34.423Z,3.03
2022-10-17T03:34:06.805Z,3.00
2022-10-17T03:36:34.756Z,3.28
2022-10-17T03:39:04.865Z,3.10
2022-10-17T03:41:33.048Z,3.65
2022-10-17T03:44:00.937Z,2.90
2022-10-17T03:46:29.035Z,3.55
2022-10-17T03:48:58.736Z,5.05
2022-10-17T03:51:26.588Z,3.03
2022-10-17T03:54:01.408Z,3.20
2022-10-17T03:56:30.566Z,3.15
2022-10-17T03:59:03.062Z,3.50
2022-10-17T04:01:34.081Z,3.60
2022-10-17T04:04:01.974Z,3.20
2022-10-17T04:06:33.567Z,3.30
2022-10-17T04:09:01.945Z,3.58
2022-10-17T04:11:44.286Z,3.30
2022-10-17T04:14:12.363Z,3.50
2022-10-17T04:16:41.219Z,3.42
2022-10-17T04:19:19.121Z,3.53
2022-10-17T04:21:48.271Z,3.88
2022-10-17T04:24:16.738Z,3.90
2022-10-17T04:27:10.481Z,4.30
2022-10-17T04:29:43.929Z,3.80
2022-10-17T04:32:17.419Z,3.88
2022-10-17T04:34:50.502Z,4.03
2022-10-17T04:37:20.141Z,4.28
2022-10-17T04:39:50.207Z,5.05
2022-10-17T04:42:19.451Z,4.28
2022-10-17T04:44:47.765Z,4.00
2022-10-17T04:47:18.059Z,4.32
2022-10-17T04:49:45.816Z,4.10
2022-10-17T04:52:15.496Z,4.25
2022-10-17T04:54:45.124Z,4.05
2022-10-17T04:57:14.882Z,4.47
2022-10-17T05:02:36.769Z,4.22
2022-10-17T05:05:05.595Z,4.68
2022-10-17T05:07:33.434Z,5.50
2022-10-17T05:10:09.748Z,4.78
2022-10-17T05:12:37.648Z,5.00
2022-10-17T05:15:09.293Z,5.35
2022-10-17T05:17:37.093Z,5.45
2022-10-17T05:20:05.721Z,5.18
2022-10-17T05:22:38.271Z,4.05
2022-10-17T05:25:11.013Z,3.72
2022-10-17T05:27:39.007Z,4.60
2022-10-17T05:30:09.870Z,4.47
2022-10-17T05:32:39.792Z,4.28
2022-10-17T05:35:08.970Z,4.35
2022-10-17T05:37:37.865Z,4.25
2022-10-17T05:40:07.200Z,5.07
2022-10-17T05:42:35.432Z,4.50
2022-10-17T05:45:04.551Z,4.45
2022-10-17T05:47:34.423Z,5.05
2022-10-17T05:50:02.302Z,4.72
2022-10-17T05:52:42.873Z,4.65
2022-10-17T05:55:16.745Z,4.45
2022-10-17T05:57:45.478Z,5.63
2022-10-17T06:00:17.740Z,6.13
2022-10-17T06:02:54.537Z,4.72
2022-10-17T06:05:23.657Z,4.90
2022-10-17T06:07:52.559Z,4.75
2022-10-17T06:10:21.601Z,12.57
2022-10-17T06:12:49.763Z,6.05
2022-10-17T06:15:17.807Z,4.25
2022-10-17T06:17:51.446Z,5.13
2022-10-17T06:20:20.808Z,4.78
2022-10-17T06:22:48.725Z,4.43
2022-10-17T06:25:24.601Z,4.50
2022-10-17T06:30:22.970Z,4.32
2022-10-17T06:32:51.021Z,4.50
2022-10-17T06:35:20.732Z,4.38
2022-10-17T06:37:50.169Z,4.13
2022-10-17T06:40:20.146Z,4.68
2022-10-17T06:43:01.009Z,3.90
2022-10-17T06:45:59.997Z,5.57
2022-10-17T06:48:34.502Z,4.78
2022-10-17T06:51:15.348Z,4.07
2022-10-17T06:53:49.934Z,4.38
2022-10-17T06:56:30.426Z,4.15
2022-10-17T06:59:27.311Z,7.03
2022-10-17T07:02:10.585Z,5.63
2022-10-17T07:04:39.130Z,6.80
2022-10-17T07:07:08.384Z,5.97
2022-10-17T07:09:36.643Z,4.63
2022-10-17T07:12:07.938Z,4.40
2022-10-17T07:14:35.774Z,4.15
2022-10-17T07:17:04.189Z,4.10
2022-10-17T07:19:33.429Z,4.40
2022-10-17T07:22:01.320Z,5.18
2022-10-17T07:24:30.630Z,8.52
2022-10-17T07:27:06.129Z,5.20
2022-10-17T07:29:34.089Z,8.93
2022-10-17T07:32:16.713Z,6.13
2022-10-17T07:34:44.537Z,18.73
2022-10-17T07:37:12.402Z,27.00
2022-10-17T07:39:47.602Z,15.18
2022-10-17T07:42:15.539Z,7.03
2022-10-17T07:44:44.078Z,7.40
2022-10-17T07:47:12.010Z,5.38
2022-10-17T07:49:42.462Z,6.32
2022-10-17T07:52:11.316Z,3.95
2022-10-17T07:54:39.376Z,3.63
2022-10-17T07:57:08.866Z,3.90
2022-10-17T07:59:38.699Z,3.40
2022-10-17T08:02:08.119Z,2.63
2022-10-17T08:04:39.120Z,2.97
2022-10-17T08:07:18.615Z,3.33
2022-10-17T08:09:49.006Z,2.92
2022-10-17T08:12:18.703Z,2.20
2022-10-17T08:14:49.558Z,3.58
2022-10-17T08:17:18.607Z,2.47
2022-10-17T08:19:46.441Z,2.42
2022-10-17T08:22:16.529Z,2.78
2022-10-17T08:24:45.287Z,2.25
2022-10-17T08:27:14.974Z,2.67
2022-10-17T08:29:48.357Z,2.42
2022-10-17T08:32:16.321Z,2.38
2022-10-17T08:34:44.294Z,2.58
2022-10-17T08:37:13.458Z,2.75
2022-10-17T08:39:42.205Z,2.22
2022-10-17T08:42:34.268Z,2.20
2022-10-17T08:45:14.669Z,2.97
2022-10-17T08:47:46.234Z,2.50
2022-10-17T08:50:18.862Z,2.47
2022-10-17T08:52:52.671Z,2.40
2022-10-17T08:55:29.547Z,2.30
2022-10-17T08:57:57.511Z,2.42
2022-10-17T09:00:29.537Z,2.67
2022-10-17T09:03:15.133Z,2.33
2022-10-17T09:05:49.989Z,1.98
2022-10-17T09:08:29.175Z,2.08
2022-10-17T09:10:59.410Z,2.00
2022-10-17T09:13:45.441Z,2.35
2022-10-17T09:16:32.203Z,2.20
2022-10-17T09:19:06.077Z,2.10
2022-10-17T09:21:42.737Z,1.80
2022-10-17T09:24:17.279Z,1.98
2022-10-17T09:26:46.724Z,2.13
2022-10-17T09:29:23.530Z,2.85
2022-10-17T09:32:01.526Z,2.30
2022-10-17T09:34:32.041Z,2.65
2022-10-17T09:37:01.169Z,1.70
2022-10-17T09:39:31.935Z,2.13
2022-10-17T09:42:01.674Z,1.98
2022-10-17T09:44:32.395Z,1.92
2022-10-17T09:47:16.414Z,1.85
2022-10-17T09:49:46.271Z,2.05
2022-10-17T09:52:17.427Z,1.50
2022-10-17T09:54:47.863Z,1.58
2022-10-17T09:57:17.497Z,2.00
2022-10-17T09:59:47.238Z,2.22
2022-10-17T10:02:19.774Z,1.50
2022-10-17T10:05:04.966Z,2.13
2022-10-17T10:07:36.077Z,1.58
2022-10-17T10:10:07.433Z,1.42
2022-10-17T10:12:39.853Z,1.40
2022-10-17T10:15:34.753Z,1.65
2022-10-17T10:18:04.410Z,1.73
2022-10-17T10:20:35.138Z,1.63
2022-10-17T10:23:08.476Z,1.92
2022-10-17T10:25:36.776Z,1.92
2022-10-17T10:28:11.760Z,1.67
2022-10-17T10:30:40.079Z,2.03
2022-10-17T10:33:12.807Z,2.00
2022-10-17T10:35:40.815Z,1.50
2022-10-17T10:38:12.441Z,1.98
2022-10-17T10:40:47.969Z,1.67
2022-10-17T10:43:24.108Z,1.40
2022-10-17T10:45:53.283Z,1.48
2022-10-17T10:48:25.034Z,1.65
2022-10-17T10:50:57.858Z,1.80
2022-10-17T10:53:42.490Z,1.23
2022-10-17T10:56:17.023Z,1.35
2022-10-17T10:58:53.788Z,1.38
2022-10-17T11:01:30.323Z,1.85
2022-10-17T11:04:19.390Z,1.92
2022-10-17T11:06:49.997Z,1.50
2022-10-17T11:09:31.430Z,1.60
2022-10-17T11:12:07.563Z,2.00
2022-10-17T11:14:44.471Z,3.17
2022-10-17T11:17:20.475Z,2.00
2022-10-17T11:19:57.057Z,2.30
2022-10-17T11:22:29.421Z,1.90
2022-10-17T11:25:00.752Z,2.05
2022-10-17T11:27:31.603Z,3.00
2022-10-17T11:29:59.634Z,2.03
2022-10-17T11:32:32.814Z,1.48
2022-10-17T11:35:09.067Z,1.50
2022-10-17T11:37:40.991Z,1.38
2022-10-17T11:40:19.274Z,1.50
2022-10-17T11:42:58.199Z,1.95
2022-10-17T11:45:29.925Z,1.50
2022-10-17T11:48:06.161Z,1.85
2022-10-17T11:53:30.000Z,2.15
2022-10-17T11:56:00.111Z,1.50
2022-10-17T11:58:35.942Z,1.55
2022-10-17T12:01:17.143Z,1.75
2022-10-17T12:03:59.709Z,1.60
2022-10-17T12:06:44.038Z,1.60
2022-10-17T12:09:21.609Z,2.28
2022-10-17T12:11:54.090Z,2.10
2022-10-17T12:14:52.287Z,1.80
2022-10-17T12:17:29.857Z,2.13
2022-10-17T12:20:33.625Z,2.15
2022-10-17T12:23:21.325Z,2.00
2022-10-17T12:25:51.029Z,1.88
2022-10-17T12:28:25.916Z,1.98
2022-10-17T12:30:57.517Z,2.55
2022-10-17T12:33:31.744Z,1.98
2022-10-17T12:36:46.634Z,2.10
2022-10-17T12:39:48.991Z,1.80
2022-10-17T12:42:52.105Z,2.00
2022-10-17T12:45:52.030Z,2.10
2022-10-17T12:48:56.655Z,2.03
2022-10-17T12:51:40.518Z,1.63
2022-10-17T12:54:13.370Z,2.33
2022-10-17T12:56:43.803Z,1.90
2022-10-17T12:59:17.640Z,2.33
2022-10-17T13:01:48.603Z,1.83
2022-10-17T13:04:17.281Z,1.80
2022-10-17T13:06:48.687Z,1.98
2022-10-17T13:09:28.550Z,2.08
2022-10-17T13:12:00.091Z,1.73
2022-10-17T13:14:29.606Z,2.55
2022-10-17T13:16:59.504Z,1.67
2022-10-17T13:19:31.377Z,1.95
2022-10-17T13:22:05.318Z,1.92
2022-10-17T13:24:36.965Z,1.65
2022-10-17T13:27:08.070Z,1.88
2022-10-17T13:29:35.852Z,1.90
2022-10-17T13:32:05.737Z,1.63
2022-10-17T13:34:34.930Z,1.60
2022-10-17T13:37:05.287Z,1.60
2022-10-17T13:39:54.499Z,1.58
2022-10-17T13:42:28.566Z,1.77
2022-10-17T13:44:57.923Z,2.10
2022-10-17T13:47:27.921Z,2.10
2022-10-17T13:49:56.874Z,2.13
2022-10-17T13:52:28.925Z,2.00
2022-10-17T13:55:08.421Z,2.10
2022-10-17T13:57:37.614Z,1.80
2022-10-17T14:00:11.610Z,1.85
2022-10-17T14:02:43.785Z,1.75
2022-10-17T14:05:18.297Z,1.45
2022-10-17T14:08:10.552Z,1.95
2022-10-17T14:10:41.730Z,2.15
2022-10-17T14:13:21.924Z,1.85
2022-10-17T14:15:50.419Z,2.42
2022-10-17T14:18:21.800Z,1.70
2022-10-17T14:21:33.989Z,1.55
2022-10-17T14:23:41.266Z,1.58
2022-10-17T14:26:13.687Z,1.50
2022-10-17T14:28:45.001Z,1.33
2022-10-17T14:31:24.961Z,1.25
2022-10-17T14:33:54.538Z,1.45
2022-10-17T14:36:32.232Z,1.42
2022-10-17T14:39:01.764Z,1.33
2022-10-17T14:41:49.074Z,1.30
2022-10-17T14:44:22.596Z,1.83
2022-10-17T14:46:55.175Z,1.70
2022-10-17T14:49:28.581Z,1.65
2022-10-17T14:52:16.960Z,1.63
2022-10-17T14:54:47.532Z,1.58
2022-10-17T14:57:18.736Z,1.30
2022-10-17T14:59:55.835Z,1.40
2022-10-17T15:02:24.569Z,1.42
2022-10-17T15:04:52.550Z,1.70
2022-10-17T15:07:22.147Z,1.45
2022-10-17T15:09:51.739Z,1.52
2022-10-17T15:12:21.397Z,1.55
2022-10-17T15:14:50.734Z,1.48
2022-10-17T15:17:26.809Z,1.75
2022-10-17T15:19:54.990Z,1.30
2022-10-17T15:22:22.843Z,1.40
2022-10-17T15:24:51.261Z,1.77
2022-10-17T15:27:21.225Z,1.45
2022-10-17T15:29:51.510Z,1.67
2022-10-17T15:32:19.648Z,1.73
2022-10-17T15:34:47.496Z,1.48
2022-10-17T15:37:20.692Z,1.55
2022-10-17T15:39:53.218Z,1.92
2022-10-17T15:42:22.689Z,1.60
2022-10-17T15:44:52.004Z,1.88
2022-10-17T15:47:25.532Z,1.98
2022-10-17T15:49:53.703Z,1.50
2022-10-17T15:52:21.772Z,1.52
2022-10-17T15:54:49.754Z,1.80
2022-10-17T15:57:20.359Z,3.92
2022-10-17T15:59:49.577Z,3.05
2022-10-17T16:02:20.323Z,2.35
2022-10-17T16:04:49.931Z,3.78
2022-10-17T16:07:18.492Z,2.45
2022-10-17T16:09:46.381Z,2.08
2022-10-17T16:12:17.889Z,1.77
2022-10-17T16:14:46.054Z,2.10
2022-10-17T16:17:15.534Z,1.65
2022-10-17T16:19:45.172Z,1.90
2022-10-17T16:22:21.144Z,1.90
2022-10-17T16:24:48.905Z,2.03
2022-10-17T16:27:16.726Z,2.20
2022-10-17T16:29:44.628Z,2.45
2022-10-17T16:32:12.447Z,2.30
2022-10-17T16:34:40.356Z,1.88
2022-10-17T16:37:09.603Z,3.70
2022-10-17T16:39:37.483Z,2.83
2022-10-17T16:42:05.521Z,2.80
2022-10-17T16:44:33.558Z,2.30
2022-10-17T16:47:01.761Z,2.30
2022-10-17T16:49:29.623Z,2.67
2022-10-17T16:51:57.532Z,2.60
2022-10-17T16:54:26.855Z,3.70
2022-10-17T16:56:54.725Z,2.92
2022-10-17T16:59:22.655Z,2.83
2022-10-17T17:01:50.609Z,2.85
2022-10-17T17:04:19.095Z,2.78
2022-10-17T17:06:50.148Z,3.17
2022-10-17T17:09:20.959Z,2.72
2022-10-17T17:11:50.156Z,2.90
2022-10-17T17:14:18.090Z,3.15
2022-10-17T17:16:46.055Z,3.38
2022-10-17T17:19:16.995Z,2.90
2022-10-17T17:21:49.994Z,3.25
2022-10-17T17:24:18.463Z,2.75
2022-10-17T17:26:47.173Z,3.88
2022-10-17T17:29:16.395Z,3.85
2022-10-17T17:31:45.493Z,2.50
2022-10-17T17:34:17.159Z,4.35
2022-10-17T17:36:46.328Z,5.25
2022-10-17T17:39:15.659Z,3.53
2022-10-17T17:41:45.596Z,2.90
2022-10-17T17:44:16.647Z,3.50
2022-10-17T17:46:46.687Z,3.22
2022-10-17T17:49:15.081Z,2.72
2022-10-17T17:51:46.189Z,3.05
2022-10-17T17:54:14.856Z,3.17
2022-10-17T17:56:42.952Z,3.30
2022-10-17T17:59:12.762Z,3.20
2022-10-17T18:01:40.661Z,3.47
2022-10-17T18:04:10.168Z,4.07
2022-10-17T18:06:39.409Z,3.80
2022-10-17T18:09:08.379Z,2.85
2022-10-17T18:11:37.630Z,3.20
2022-10-17T18:14:08.089Z,2.92
2022-10-17T18:16:37.445Z,3.42
2022-10-17T18:19:13.791Z,3.30
2022-10-17T18:21:44.175Z,3.25
2022-10-17T18:24:12.092Z,4.00
2022-10-17T18:26:39.889Z,3.15
2022-10-17T18:29:07.685Z,3.20
2022-10-17T18:31:36.463Z,3.58
2022-10-17T18:34:06.134Z,3.25
2022-10-17T18:36:35.675Z,3.10
2022-10-17T18:39:06.096Z,3.03
2022-10-17T18:41:34.422Z,3.25
2022-10-17T18:44:03.811Z,6.10
2022-10-17T18:46:35.739Z,14.48
2022-10-17T18:49:04.184Z,10.55
2022-10-17T18:51:32.122Z,3.50
2022-10-17T18:53:59.917Z,3.78
2022-10-17T18:56:29.160Z,4.00
2022-10-17T18:58:57.514Z,3.90
2022-10-17T19:01:27.436Z,3.60
2022-10-17T19:03:58.879Z,4.30
2022-10-17T19:06:28.557Z,4.53
2022-10-17T19:08:57.591Z,4.55
2022-10-17T19:11:28.430Z,4.25
2022-10-17T19:14:01.543Z,5.15
2022-10-17T19:16:43.858Z,4.78
2022-10-17T19:19:14.240Z,8.10
2022-10-17T19:21:43.010Z,4.78
2022-10-17T19:24:14.070Z,4.07
2022-10-17T19:26:42.493Z,4.00
2022-10-17T19:29:14.253Z,4.55
2022-10-17T19:31:42.521Z,5.10
2022-10-17T19:34:11.592Z,4.15
2022-10-17T19:36:40.117Z,4.72
2022-10-17T19:39:09.872Z,4.10
2022-10-17T19:41:37.789Z,4.55
2022-10-17T19:44:05.794Z,4.20
2022-10-17T19:46:35.174Z,4.25
2022-10-17T19:49:03.496Z,4.43
2022-10-17T19:51:31.651Z,4.40
2022-10-17T19:54:01.490Z,15.15
2022-10-17T19:56:32.433Z,4.00
2022-10-17T19:59:00.394Z,3.83
2022-10-17T20:01:30.235Z,3.97
2022-10-17T20:03:59.469Z,4.20
2022-10-17T20:06:28.148Z,3.92
2022-10-17T20:08:56.003Z,5.28
2022-10-17T20:11:26.171Z,4.57
2022-10-17T20:13:54.886Z,3.95
2022-10-17T20:16:25.050Z,3.97
2022-10-17T20:18:55.566Z,4.30
2022-10-17T20:21:27.269Z,4.20
2022-10-17T20:23:55.862Z,5.05
2022-10-17T20:26:33.555Z,4.50
2022-10-17T20:29:08.739Z,4.55
2022-10-17T20:31:37.205Z,4.43
2022-10-17T20:34:05.195Z,4.60
2022-10-17T20:36:37.760Z,4.72
2022-10-17T20:39:07.166Z,4.55
2022-10-17T20:41:35.530Z,5.50
2022-10-17T20:44:03.465Z,5.43
2022-10-17T20:46:44.773Z,4.78
2022-10-17T20:49:22.321Z,4.82
2022-10-17T20:51:51.579Z,5.80
2022-10-17T20:54:19.508Z,5.93
2022-10-17T20:56:47.470Z,4.93
2022-10-17T20:59:17.460Z,5.43
2022-10-17T21:01:46.853Z,4.65
2022-10-17T21:04:44.343Z,5.70
2022-10-17T21:07:04.731Z,4.68
2022-10-17T21:09:32.533Z,4.85
2022-10-17T21:14:36.334Z,4.65
2022-10-17T21:17:05.508Z,4.68
2022-10-17T21:19:33.778Z,5.30
2022-10-17T21:22:01.751Z,5.40
2022-10-17T21:24:32.014Z,5.00
2022-10-17T21:26:59.866Z,5.32
2022-10-17T21:29:30.408Z,4.60
2022-10-17T21:31:58.246Z,4.78
2022-10-17T21:34:26.242Z,5.53
2022-10-17T21:36:54.327Z,5.25
2022-10-17T21:39:23.962Z,5.03
2022-10-17T21:41:54.019Z,4.78
2022-10-17T21:44:23.215Z,5.38
2022-10-17T21:46:51.855Z,4.63
2022-10-17T21:49:21.619Z,5.25
2022-10-17T21:51:49.829Z,4.85
2022-10-17T21:54:19.934Z,5.10
2022-10-17T21:56:48.050Z,4.60
2022-10-17T21:59:17.576Z,4.97
2022-10-17T22:01:46.983Z,5.20
2022-10-17T22:04:17.884Z,5.25
2022-10-17T22:06:47.837Z,5.18
2022-10-17T22:09:18.347Z,5.38
2022-10-17T22:11:50.815Z,4.87
2022-10-17T22:14:21.942Z,5.32
2022-10-17T22:16:50.657Z,4.78
2022-10-17T22:19:21.103Z,4.78
2022-10-17T22:21:49.652Z,4.50
2022-10-17T22:24:19.401Z,5.03
2022-10-17T22:26:50.160Z,4.38
2022-10-17T22:29:18.088Z,4.93
2022-10-17T22:31:47.372Z,4.95
2022-10-17T22:34:16.975Z,4.80
2022-10-17T22:36:48.899Z,5.65
2022-10-17T22:39:17.065Z,5.05
2022-10-17T22:41:45.029Z,5.13
2022-10-17T22:44:12.822Z,4.65
2022-10-17T22:46:40.926Z,5.53
2022-10-17T22:49:10.133Z,4.38
2022-10-17T22:51:37.962Z,4.50
2022-10-17T22:54:06.016Z,5.00
2022-10-17T22:56:33.874Z,5.22
2022-10-17T22:59:01.686Z,5.40
2022-10-17T23:01:29.614Z,4.72
2022-10-17T23:03:57.515Z,5.00
2022-10-17T23:06:26.711Z,5.35
2022-10-17T23:08:55.306Z,4.82
2022-10-17T23:11:24.043Z,5.20
2022-10-17T23:13:52.218Z,4.82
2022-10-17T23:16:20.061Z,5.10
2022-10-17T23:18:47.900Z,5.22
2022-10-17T23:21:16.354Z,4.88
2022-10-17T23:23:45.614Z,5.60
2022-10-17T23:26:15.220Z,5.60
2022-10-17T23:28:44.255Z,5.40
2022-10-17T23:31:15.463Z,6.82
2022-10-17T23:33:45.047Z,6.28
2022-10-17T23:36:14.745Z,6.07
2022-10-17T23:38:44.245Z,4.97
2022-10-17T23:41:14.060Z,5.05
2022-10-17T23:43:41.899Z,5.45
2022-10-17T23:46:09.725Z,4.85
2022-10-17T23:48:38.650Z,4.95
2022-10-17T23:51:07.546Z,5.60
2022-10-17T23:53:35.628Z,5.28
2022-10-17T23:56:04.187Z,5.35
2022-10-17T23:58:33.659Z,5.55
